Time;durP1;ratioP1;P1;durP2;ratioP2;P2;SDS_P1;SDS_P2;PMS_P1;PMS_P2;Temp;Humidity;BMP_temperature;BMP_pressure;BME280_temperature;BME280_humidity;BME280_pressure;Samples;Min_cycle;Max_cycle;Signal;HPM_P1;HPM_P2
2022/04/30 00:00:52;;;;;;;16.00;13.40;;;;;;;10.96;74.41;96919.38;4996761;28;20402;-67
2022/04/30 00:03:18;;;;;;;14.65;12.48;;;;;;;10.94;74.09;96910.72;4996583;28;20033;-65
2022/04/30 00:05:44;;;;;;;16.80;13.80;;;;;;;10.90;73.86;96914.34;4996503;28;20460;-66
2022/04/30 00:08:10;;;;;;;15.55;13.40;;;;;;;10.78;74.39;96913.88;4996557;28;20033;-62
2022/04/30 00:10:38;;;;;;;18.38;12.95;;;;;;;10.78;74.33;96921.72;4996519;28;20061;-63
2022/04/30 00:13:13;;;;;;;13.75;12.35;;;;;;;10.78;74.08;96911.25;4996443;28;20022;-62
2022/04/30 00:15:39;;;;;;;19.13;13.05;;;;;;;10.73;73.94;96911.41;4996401;28;20038;-67
2022/04/30 00:18:05;;;;;;;17.15;13.63;;;;;;;10.70;73.81;96910.63;4996360;28;20025;-63
2022/04/30 00:20:32;;;;;;;14.38;12.88;;;;;;;10.64;74.33;96914.31;4996189;28;20045;-64
2022/04/30 00:22:57;;;;;;;14.50;12.73;;;;;;;10.55;74.77;96912.84;4996265;28;20037;-63
2022/04/30 00:25:23;;;;;;;15.07;13.50;;;;;;;10.52;74.99;96914.69;4996133;28;20436;-62
2022/04/30 00:27:50;;;;;;;17.73;13.80;;;;;;;10.49;74.91;96907.81;4996184;28;20078;-65
2022/04/30 00:30:16;;;;;;;19.42;12.93;;;;;;;10.52;74.54;96915.56;4996155;28;20058;-65
2022/04/30 00:32:42;;;;;;;14.73;12.88;;;;;;;10.51;73.94;96915.59;4996043;28;20060;-63
2022/04/30 00:35:08;;;;;;;14.75;13.23;;;;;;;10.44;74.11;96910.53;4996136;28;20469;-65
2022/04/30 00:37:34;;;;;;;15.65;13.45;;;;;;;10.39;73.82;96912.44;4995949;28;20031;-65
2022/04/30 00:39:59;;;;;;;14.48;13.07;;;;;;;10.35;74.07;96909.06;4996097;28;20077;-65
2022/04/30 00:42:25;;;;;;;14.73;12.52;;;;;;;10.31;74.48;96909.19;4995215;28;20041;-62
2022/04/30 00:44:50;;;;;;;16.02;14.10;;;;;;;10.31;75.70;96910.06;4995373;28;20042;-65
2022/04/30 00:47:18;;;;;;;14.68;13.13;;;;;;;10.15;74.82;96901.84;4995862;28;20029;-63
2022/04/30 00:49:45;;;;;;;19.00;15.55;;;;;;;10.05;75.18;96903.03;4995807;28;20035;-64
2022/04/30 00:52:15;;;;;;;13.90;12.45;;;;;;;10.06;75.00;96902.13;4995768;28;20495;-65
2022/04/30 00:54:42;;;;;;;18.07;13.27;;;;;;;10.01;74.35;96899.63;4995716;28;20023;-63
2022/04/30 00:57:13;;;;;;;15.50;13.10;;;;;;;9.92;74.67;96894.69;4995659;28;20264;-67
2022/04/30 00:59:40;;;;;;;18.10;13.50;;;;;;;9.84;74.98;96898.38;4995571;28;20029;-64
2022/04/30 01:02:09;;;;;;;17.20;12.35;;;;;;;9.79;75.25;96897.69;4995558;28;20389;-65
2022/04/30 01:04:35;;;;;;;18.00;13.55;;;;;;;9.72;74.77;96893.50;4995366;28;20039;-64
2022/04/30 01:07:08;;;;;;;16.67;13.00;;;;;;;9.64;74.95;96890.28;4995454;28;20025;-65
2022/04/30 01:09:38;;;;;;;18.08;14.60;;;;;;;9.60;75.23;96892.09;4977964;28;20366;-63
2022/04/30 01:12:10;;;;;;;15.27;13.57;;;;;;;9.54;77.18;96887.06;4995389;28;20090;-64
2022/04/30 01:14:38;;;;;;;16.08;13.38;;;;;;;9.57;75.57;96882.59;4995259;28;20045;-67
2022/04/30 01:17:06;;;;;;;18.58;14.48;;;;;;;9.55;75.81;96886.16;4995288;28;20354;-65
2022/04/30 01:19:41;;;;;;;14.95;13.32;;;;;;;9.51;75.56;96877.53;4995258;28;20058;-67
2022/04/30 01:22:20;;;;;;;15.32;12.98;;;;;;;9.41;75.51;96876.97;4995173;28;20081;-64
2022/04/30 01:24:46;;;;;;;17.75;12.95;;;;;;;9.30;76.26;96865.97;4995076;28;20042;-66
2022/04/30 01:27:16;;;;;;;15.07;12.30;;;;;;;9.33;76.13;96879.78;4995152;28;20023;-67
2022/04/30 01:29:41;;;;;;;16.55;12.32;;;;;;;9.33;76.12;96869.34;4994946;28;20421;-63
2022/04/30 01:37:38;;;;;;;16.15;12.15;;;;;;;9.41;75.62;96871.75;4995048;28;20036;-65
2022/04/30 01:40:21;;;;;;;13.35;11.88;;;;;;;9.42;75.60;96867.38;4994877;28;20448;-63
2022/04/30 01:42:47;;;;;;;13.00;11.60;;;;;;;9.42;76.04;96876.06;4994673;28;20132;-63
2022/04/30 01:45:15;;;;;;;12.40;11.10;;;;;;;9.38;76.22;96878.78;4994681;28;20038;-66
2022/04/30 01:47:43;;;;;;;15.13;12.45;;;;;;;9.31;76.31;96873.75;4994666;28;20026;-64
2022/04/30 01:50:09;;;;;;;20.20;12.20;;;;;;;9.32;75.75;96872.00;4994642;28;20092;-64
2022/04/30 01:52:36;;;;;;;13.90;11.98;;;;;;;9.30;76.15;96871.19;4994648;28;20018;-65
2022/04/30 01:55:02;;;;;;;15.57;11.77;;;;;;;9.33;75.87;96876.34;4994406;28;20105;-66
2022/04/30 01:57:28;;;;;;;14.70;11.55;;;;;;;9.33;75.62;96873.72;4994605;28;20030;-64
2022/04/30 01:59:54;;;;;;;13.88;11.32;;;;;;;9.26;75.73;96866.94;4994447;28;20044;-63
2022/04/30 02:02:23;;;;;;;12.27;10.73;;;;;;;9.22;75.55;96871.41;4994366;28;20026;-63
2022/04/30 02:04:51;;;;;;;14.45;11.52;;;;;;;9.18;75.63;96875.84;4994240;28;20531;-65
2022/04/30 02:07:17;;;;;;;15.80;11.85;;;;;;;9.13;75.54;96871.63;4994224;28;20033;-64
2022/04/30 02:09:43;;;;;;;12.57;10.65;;;;;;;9.03;76.00;96856.22;4994199;28;20097;-64
2022/04/30 02:12:09;;;;;;;12.20;10.95;;;;;;;9.03;76.10;96866.66;4994273;28;20023;-64
2022/04/30 02:14:37;;;;;;;17.60;10.93;;;;;;;8.99;76.01;96870.25;4994228;28;20022;-67
2022/04/30 02:17:06;;;;;;;15.88;10.65;;;;;;;8.96;75.97;96858.16;4994112;28;20045;-67
2022/04/30 02:20:18;;;;;;;11.35;10.15;;;;;;;8.94;75.86;96853.88;4994191;28;20033;-66
2022/04/30 02:22:21;;;;;;;12.68;9.23;;;;;;;8.92;75.79;96855.66;4994019;28;20042;-64
2022/04/30 02:24:48;;;;;;;12.98;10.63;;;;;;;8.91;75.93;96864.41;4993998;28;20026;-64
2022/04/30 02:27:14;;;;;;;11.23;10.13;;;;;;;8.92;76.37;96860.88;4993900;28;20030;-64
2022/04/30 02:29:40;;;;;;;14.10;10.15;;;;;;;8.96;76.19;96852.06;4994017;28;20033;-66
2022/04/30 02:32:06;;;;;;;13.77;9.70;;;;;;;8.95;76.12;96856.44;4994002;28;20027;-67
2022/04/30 02:34:35;;;;;;;20.27;9.55;;;;;;;8.94;75.94;96851.28;4994035;28;20054;-65
2022/04/30 02:37:03;;;;;;;10.93;9.07;;;;;;;8.98;75.67;96855.50;4993966;28;20114;-65
2022/04/30 02:39:30;;;;;;;13.57;9.10;;;;;;;8.93;75.63;96863.44;4993774;28;20580;-65
2022/04/30 02:41:56;;;;;;;14.93;9.43;;;;;;;8.96;75.70;96862.50;4993553;28;20042;-65
2022/04/30 02:44:25;;;;;;;12.40;8.85;;;;;;;8.92;75.62;96850.44;4993687;28;20033;-64
2022/04/30 02:46:55;;;;;;;11.68;9.18;;;;;;;8.91;75.81;96859.19;4993727;28;20110;-66
2022/04/30 02:49:21;;;;;;;13.88;9.50;;;;;;;8.89;76.15;96858.34;4993661;28;20026;-65
2022/04/30 02:51:49;;;;;;;11.70;8.95;;;;;;;8.91;76.10;96864.41;4993609;28;20035;-66
2022/04/30 02:54:15;;;;;;;10.88;9.02;;;;;;;8.90;75.98;96854.84;4993572;28;20030;-66
2022/04/30 02:56:41;;;;;;;11.02;9.45;;;;;;;8.91;76.17;96859.19;4993638;28;20072;-65
2022/04/30 03:01:50;;;;;;;9.80;8.18;;;;;;;8.83;77.26;96854.16;4993993;28;20552;-64
2022/04/30 03:04:16;;;;;;;11.18;8.55;;;;;;;8.82;76.88;96853.28;4993553;28;20026;-65
2022/04/30 03:06:41;;;;;;;13.07;8.63;;;;;;;8.79;76.89;96850.75;4995194;28;20480;-64
2022/04/30 03:09:07;;;;;;;11.32;9.38;;;;;;;8.75;77.73;96851.72;4997715;28;20057;-66
2022/04/30 03:11:32;;;;;;;11.95;9.38;;;;;;;8.76;78.86;96855.22;4997614;28;20053;-63
2022/04/30 03:13:58;;;;;;;8.80;7.70;;;;;;;8.84;78.33;96856.72;4997528;28;20026;-64
2022/04/30 03:21:52;;;;;;;10.10;7.75;;;;;;;8.82;79.77;96863.72;4997829;28;20045;-63
2022/04/30 03:24:18;;;;;;;10.40;8.25;;;;;;;8.81;79.85;96871.59;4997243;28;20030;-64
2022/04/30 03:26:48;;;;;;;10.07;8.60;;;;;;;8.72;81.45;96870.94;4997411;28;20050;-64
2022/04/30 03:29:15;;;;;;;10.88;7.90;;;;;;;8.81;81.34;96872.44;4997290;28;20035;-66
2022/04/30 03:31:41;;;;;;;10.30;7.00;;;;;;;8.88;81.20;96864.47;4997218;28;20022;-65
2022/04/30 03:34:14;;;;;;;9.48;7.70;;;;;;;8.85;81.17;96876.69;4996942;28;20026;-63
2022/04/30 03:36:40;;;;;;;8.75;7.55;;;;;;;8.98;81.61;96879.81;4997126;28;20484;-64
2022/04/30 03:39:06;;;;;;;8.43;7.53;;;;;;;9.05;81.35;96879.66;4997094;28;20030;-67
2022/04/30 03:41:32;;;;;;;9.27;7.65;;;;;;;9.14;80.87;96878.56;4996834;28;20047;-65
2022/04/30 03:43:58;;;;;;;7.45;6.72;;;;;;;9.19;80.46;96879.31;4996843;28;20037;-65
2022/04/30 03:46:24;;;;;;;8.45;6.80;;;;;;;9.28;80.67;96884.28;4996970;28;20026;-67
2022/04/30 03:48:56;;;;;;;10.15;7.07;;;;;;;9.31;79.92;96875.50;4996910;28;20026;-65
2022/04/30 03:51:25;;;;;;;9.18;6.38;;;;;;;9.38;80.07;96882.28;4996944;28;20461;-65
2022/04/30 03:53:51;;;;;;;7.18;6.47;;;;;;;9.47;79.99;96883.75;4996711;28;20030;-64
2022/04/30 03:56:17;;;;;;;7.05;6.22;;;;;;;9.48;79.49;96883.72;4996845;28;20022;-64
2022/04/30 03:58:44;;;;;;;10.88;6.53;;;;;;;9.47;79.43;96891.59;4996708;28;20449;-65
2022/04/30 04:01:11;;;;;;;6.97;6.22;;;;;;;9.59;79.49;96895.63;4996768;28;21072;-66
2022/04/30 04:03:36;;;;;;;7.07;6.38;;;;;;;9.67;79.08;96895.41;4996524;28;20038;-67
2022/04/30 04:06:02;;;;;;;7.93;5.35;;;;;;;9.73;78.33;96895.22;4996576;28;20030;-63
2022/04/30 04:08:28;;;;;;;7.03;6.18;;;;;;;9.76;77.80;96886.44;4996419;28;20097;-66
2022/04/30 04:10:55;;;;;;;10.18;5.28;;;;;;;9.80;77.91;96881.09;4996588;28;20061;-66
2022/04/30 04:18:54;;;;;;;5.20;4.55;;;;;;;10.11;75.93;96879.28;4995417;28;20048;-63
2022/04/30 04:21:20;;;;;;;;;;;;;;;10.25;75.53;96871.03;4996790;28;20034;-65
2022/04/30 04:26:30;;;;;;;5.03;4.38;;;;;;;10.52;74.31;96883.31;4996581;28;20088;-65
2022/04/30 04:28:55;;;;;;;4.78;4.28;;;;;;;10.69;74.35;96875.75;4996152;28;20026;-65
2022/04/30 04:31:22;;;;;;;5.68;4.00;;;;;;;10.83;74.33;96885.78;4996145;28;20033;-64
2022/04/30 04:33:49;;;;;;;6.10;4.65;;;;;;;10.89;74.05;96895.16;4996225;28;20018;-64
2022/04/30 04:36:16;;;;;;;4.32;3.72;;;;;;;10.86;72.79;96898.75;4995973;28;20045;-66
2022/04/30 04:38:42;;;;;;;5.18;4.00;;;;;;;10.86;73.09;96900.50;4996054;28;20478;-65
2022/04/30 04:41:08;;;;;;;4.40;3.70;;;;;;;10.87;72.55;96907.47;4995752;28;20069;-63
2022/04/30 04:43:35;;;;;;;4.03;3.65;;;;;;;11.02;72.73;96906.09;4995637;28;20465;-67
2022/04/30 04:46:06;;;;;;;4.68;4.28;;;;;;;11.08;71.77;96907.66;4995815;28;20027;-65
2022/04/30 04:48:36;;;;;;;5.15;4.65;;;;;;;11.40;72.07;96895.19;4979065;28;20436;-64
2022/04/30 04:51:03;;;;;;;4.93;3.97;;;;;;;11.96;71.38;96900.16;4995836;28;20085;-63
2022/04/30 04:53:29;;;;;;;7.07;3.97;;;;;;;12.40;70.62;96899.38;4995732;28;20046;-65
2022/04/30 04:55:56;;;;;;;5.13;3.90;;;;;;;12.70;67.75;96896.44;4995645;28;20026;-64
2022/04/30 04:58:22;;;;;;;6.15;3.58;;;;;;;12.98;66.38;96900.53;4995689;28;20022;-63
2022/04/30 05:00:49;;;;;;;4.03;3.70;;;;;;;13.26;66.38;96907.25;4995629;28;20022;-67
2022/04/30 05:03:15;;;;;;;3.97;3.58;;;;;;;13.34;63.97;96906.06;4995286;28;20488;-64
2022/04/30 05:05:40;;;;;;;4.65;3.75;;;;;;;13.27;64.77;96914.22;4995511;28;20030;-64
2022/04/30 05:08:06;;;;;;;4.47;4.03;;;;;;;13.29;64.79;96911.50;4995423;28;20369;-65
2022/04/30 05:10:32;;;;;;;4.18;3.28;;;;;;;13.51;64.08;96908.84;4995407;28;20022;-64
2022/04/30 05:12:58;;;;;;;3.63;3.22;;;;;;;13.69;63.90;96905.47;4995457;28;20026;-65
2022/04/30 05:15:24;;;;;;;6.10;3.67;;;;;;;13.87;63.68;96907.25;4995495;28;20026;-63
2022/04/30 05:17:50;;;;;;;6.22;3.40;;;;;;;14.03;62.98;96894.25;4995312;28;20069;-65
2022/04/30 05:20:16;;;;;;;3.67;3.35;;;;;;;14.17;62.07;96897.19;4977719;28;20034;-62
2022/04/30 05:22:42;;;;;;;3.75;3.38;;;;;;;14.18;62.38;96901.50;4995204;28;20023;-65
2022/04/30 05:25:08;;;;;;;3.33;3.03;;;;;;;14.35;61.55;96904.19;4977727;28;20576;-63
2022/04/30 05:27:34;;;;;;;3.90;3.38;;;;;;;14.63;59.92;96910.75;4977710;28;20026;-63
2022/04/30 05:29:59;;;;;;;6.32;2.97;;;;;;;14.98;60.15;96909.97;4994618;28;20484;-64
2022/04/30 05:32:26;;;;;;;3.47;3.15;;;;;;;15.06;57.17;96906.09;4994928;28;20030;-64
2022/04/30 05:34:52;;;;;;;4.53;3.25;;;;;;;14.82;58.29;96917.78;4977737;28;20023;-63
2022/04/30 05:37:17;;;;;;;3.53;3.20;;;;;;;14.50;59.01;96921.03;4994786;28;20027;-66
2022/04/30 05:39:43;;;;;;;6.47;3.20;;;;;;;14.12;59.60;96929.78;4995002;28;20022;-63
2022/04/30 05:42:09;;;;;;;3.92;3.08;;;;;;;13.94;59.99;96938.53;4994648;28;20093;-62
2022/04/30 05:44:35;;;;;;;3.50;3.20;;;;;;;13.95;60.38;96938.47;4994683;28;20077;-63
2022/04/30 05:47:01;;;;;;;3.05;2.75;;;;;;;13.74;60.39;96937.66;4994700;28;20043;-64
2022/04/30 05:49:27;;;;;;;4.80;2.97;;;;;;;13.68;61.15;96940.53;4994720;28;20077;-64
2022/04/30 05:51:54;;;;;;;3.28;2.90;;;;;;;13.99;60.79;96937.41;4994672;28;20061;-65
2022/04/30 05:54:20;;;;;;;4.03;2.30;;;;;;;14.39;58.38;96931.22;4994471;28;20022;-63
2022/04/30 05:56:47;;;;;;;3.78;2.30;;;;;;;14.79;55.30;96939.00;4994593;28;20034;-63
2022/04/30 05:59:12;;;;;;;1.85;1.75;;;;;;;15.14;53.64;96933.75;4994609;28;20030;-64
2022/04/30 06:01:38;;;;;;;2.42;2.22;;;;;;;15.37;53.43;96936.16;4994540;28;20113;-64
2022/04/30 06:04:04;;;;;;;2.45;1.80;;;;;;;15.58;52.23;96926.28;4994404;28;20408;-66
2022/04/30 06:06:30;;;;;;;1.90;1.80;;;;;;;15.77;52.24;96920.91;4994411;28;20382;-65
2022/04/30 06:08:58;;;;;;;2.17;1.60;;;;;;;15.93;52.63;96930.66;4994208;28;20030;-65
2022/04/30 06:11:25;;;;;;;3.25;1.92;;;;;;;16.50;53.15;96931.97;4994192;28;20038;-63
2022/04/30 06:13:50;;;;;;;2.00;1.70;;;;;;;16.88;50.50;96925.47;4994300;28;20039;-63
2022/04/30 06:16:16;;;;;;;2.90;1.30;;;;;;;16.86;49.10;96929.16;4994200;28;20448;-64
2022/04/30 06:18:43;;;;;;;2.30;1.48;;;;;;;16.56;48.29;96936.09;4994063;28;20069;-63
2022/04/30 06:21:10;;;;;;;2.03;1.60;;;;;;;16.82;47.92;96935.53;4994030;28;20461;-63
2022/04/30 06:23:36;;;;;;;1.55;1.42;;;;;;;16.92;48.28;96944.66;4993981;28;20066;-63
2022/04/30 06:26:02;;;;;;;1.73;1.30;;;;;;;16.94;45.79;96945.38;4994182;28;20030;-63
2022/04/30 06:28:27;;;;;;;3.80;1.58;;;;;;;16.82;46.10;96944.31;4994029;28;20126;-65
2022/04/30 06:30:54;;;;;;;2.33;1.40;;;;;;;16.57;47.02;96939.56;4976360;28;20046;-64
2022/04/30 06:33:19;;;;;;;2.90;1.58;;;;;;;16.92;47.94;96947.28;4994010;28;20062;-64
2022/04/30 06:35:46;;;;;;;2.72;1.70;;;;;;;16.93;45.98;96938.41;4993870;28;20042;-65
2022/04/30 06:38:11;;;;;;;1.60;1.50;;;;;;;16.79;46.57;96944.47;4993917;28;20042;-64
2022/04/30 06:40:37;;;;;;;2.03;1.40;;;;;;;16.95;48.23;96944.47;4992979;28;20019;-63
2022/04/30 06:43:03;;;;;;;4.38;1.80;;;;;;;17.11;46.33;96944.47;4993864;28;20057;-64
2022/04/30 06:45:29;;;;;;;2.10;1.50;;;;;;;17.26;45.90;96937.44;4993675;28;20481;-64
2022/04/30 06:47:55;;;;;;;2.17;1.42;;;;;;;17.45;47.31;96943.41;4993707;28;20030;-64
2022/04/30 06:50:21;;;;;;;2.40;1.50;;;;;;;17.69;44.91;96949.00;4993746;28;20074;-63
2022/04/30 06:58:17;;;;;;;1.80;1.70;;;;;;;17.52;44.34;96931.53;4993746;28;20061;-63
2022/04/30 07:03:26;;;;;;;2.67;1.55;;;;;;;17.28;45.33;96938.16;4993666;28;20026;-62
2022/04/30 07:06:03;;;;;;;1.42;1.30;;;;;;;17.65;46.66;96935.13;4993491;28;20042;-63
2022/04/30 07:08:33;;;;;;;1.60;1.50;;;;;;;18.27;45.74;96934.97;4993640;28;20081;-62
2022/04/30 07:11:04;;;;;;;2.75;1.40;;;;;;;18.31;42.74;96929.34;4993618;28;20027;-65
2022/04/30 07:13:30;;;;;;;;;;;;;;;17.93;44.83;96935.22;4994019;28;20472;-64
2022/04/30 07:15:56;;;;;;;2.53;1.40;;;;;;;17.52;43.27;96932.38;4993446;28;19917;-63
2022/04/30 07:18:22;;;;;;;4.00;1.80;;;;;;;17.58;44.06;96936.44;4993407;28;20035;-63
2022/04/30 07:20:48;;;;;;;3.17;1.50;;;;;;;17.63;44.83;96930.84;4993487;28;20026;-62
2022/04/30 07:23:14;;;;;;;3.03;1.80;;;;;;;17.34;44.48;96941.41;4993433;28;20106;-61
2022/04/30 07:25:40;;;;;;;1.90;1.50;;;;;;;17.28;45.96;96938.16;4993419;28;20465;-62
2022/04/30 07:28:06;;;;;;;1.73;1.60;;;;;;;17.38;46.10;96943.78;4993563;28;20030;-65
2022/04/30 07:30:32;;;;;;;2.70;1.70;;;;;;;17.42;44.48;96941.78;4993436;28;20045;-64
2022/04/30 07:32:58;;;;;;;2.55;1.65;;;;;;;17.55;44.81;96937.47;4993127;28;20044;-65
2022/04/30 07:35:23;;;;;;;2.67;1.55;;;;;;;17.66;44.41;96943.91;4993366;28;20539;-64
2022/04/30 07:37:49;;;;;;;2.90;1.80;;;;;;;17.51;42.94;96941.25;4993346;28;20039;-63
2022/04/30 07:40:15;;;;;;;1.50;1.38;;;;;;;17.36;43.89;96940.38;4993267;28;20046;-65
2022/04/30 07:42:40;;;;;;;2.75;1.20;;;;;;;17.28;44.19;96948.75;4992993;28;20047;-65
2022/04/30 07:45:07;;;;;;;1.77;1.58;;;;;;;17.40;44.13;96939.22;4993292;28;20104;-66
2022/04/30 07:47:32;;;;;;;3.10;1.65;;;;;;;17.43;43.07;96949.63;4993296;28;20061;-63
2022/04/30 07:49:58;;;;;;;1.27;1.17;;;;;;;17.72;43.70;96950.59;4993320;28;20026;-63
2022/04/30 07:52:25;;;;;;;2.63;1.40;;;;;;;17.92;41.45;96947.63;4994311;28;20069;-64
2022/04/30 07:54:51;;;;;;;1.38;1.27;;;;;;;17.92;42.21;96944.97;4996907;28;20030;-63
2022/04/30 07:57:16;;;;;;;1.60;1.30;;;;;;;17.68;41.91;96942.03;4996783;28;20061;-62
2022/04/30 07:59:44;;;;;;;1.40;1.30;;;;;;;17.67;43.00;96937.69;4979367;28;20481;-63
2022/04/30 08:02:10;;;;;;;1.35;1.20;;;;;;;17.62;42.42;96935.31;4996706;28;20384;-65
2022/04/30 08:04:36;;;;;;;1.77;1.48;;;;;;;17.56;44.32;96946.25;4996493;28;20041;-64
2022/04/30 08:07:02;;;;;;;3.03;1.40;;;;;;;17.52;41.43;96936.81;4996469;28;20019;-64
2022/04/30 08:09:28;;;;;;;1.58;1.48;;;;;;;17.77;42.59;96936.19;4996597;28;20099;-63
2022/04/30 08:11:54;;;;;;;1.75;1.60;;;;;;;17.93;45.68;96924.63;4996614;28;20061;-65
2022/04/30 08:14:20;;;;;;;1.50;1.38;;;;;;;17.74;41.50;96927.56;4996529;28;20097;-64
2022/04/30 08:16:45;;;;;;;2.30;1.50;;;;;;;17.37;42.45;96928.00;4996381;28;20469;-63
2022/04/30 08:19:11;;;;;;;3.67;1.60;;;;;;;17.07;43.39;96924.44;4996385;28;20022;-65
2022/04/30 08:21:38;;;;;;;1.27;1.17;;;;;;;17.39;45.34;96926.97;4996405;28;20027;-63
2022/04/30 08:24:04;;;;;;;2.15;1.50;;;;;;;17.28;44.06;96935.53;4996181;28;20046;-66
2022/04/30 08:26:31;;;;;;;2.25;1.70;;;;;;;16.94;42.47;96937.47;4996287;28;20105;-63
2022/04/30 08:28:58;;;;;;;3.03;1.40;;;;;;;17.19;42.39;96928.16;4996139;28;20038;-63
2022/04/30 08:31:24;;;;;;;1.42;1.33;;;;;;;17.67;42.01;96929.75;4996130;28;20478;-63
2022/04/30 08:33:50;;;;;;;1.85;1.63;;;;;;;18.03;42.76;96920.47;4996128;28;20031;-65
2022/04/30 08:36:17;;;;;;;3.50;1.65;;;;;;;18.06;41.47;96911.47;4996155;28;20461;-65
2022/04/30 08:38:43;;;;;;;2.97;1.70;;;;;;;18.58;45.03;96900.34;4996182;28;20157;-62
2022/04/30 08:41:10;;;;;;;1.50;1.30;;;;;;;18.62;40.27;96904.50;4995797;28;20133;-66
2022/04/30 08:43:39;;;;;;;1.25;1.15;;;;;;;18.36;41.77;96902.59;4995810;28;20030;-66
2022/04/30 08:46:09;;;;;;;2.35;1.20;;;;;;;18.44;39.59;96902.97;4995788;28;20026;-66
2022/04/30 08:48:40;;;;;;;1.60;1.38;;;;;;;18.30;40.03;96900.31;4995977;28;20112;-63
2022/04/30 08:51:06;;;;;;;2.45;1.15;;;;;;;18.35;39.60;96900.88;4995961;28;20496;-66
2022/04/30 08:53:32;;;;;;;1.77;1.15;;;;;;;17.92;41.09;96915.88;4995754;28;20022;-63
2022/04/30 08:56:06;;;;;;;1.40;1.30;;;;;;;18.00;40.13;96896.84;4995653;28;20026;-64
2022/04/30 08:58:35;;;;;;;2.72;1.20;;;;;;;17.99;41.75;96900.44;4995948;28;20022;-62
2022/04/30 09:01:03;;;;;;;1.20;1.10;;;;;;;18.26;42.47;96901.47;4995647;28;20018;-64
2022/04/30 09:03:35;;;;;;;2.63;1.02;;;;;;;18.23;40.37;96906.97;4994973;28;20038;-66
2022/04/30 09:06:01;;;;;;;1.30;1.17;;;;;;;18.23;42.02;96899.00;4995318;28;20084;-62
2022/04/30 09:08:28;;;;;;;2.30;1.20;;;;;;;18.39;42.34;96905.03;4995338;28;20121;-65
2022/04/30 09:11:07;;;;;;;1.92;1.10;;;;;;;18.62;39.80;96900.06;4995495;28;20113;-66
2022/04/30 09:13:44;;;;;;;5.50;1.27;;;;;;;18.76;38.83;96903.59;4995565;28;20041;-62
2022/04/30 09:16:22;;;;;;;1.35;0.98;;;;;;;19.08;38.68;96905.09;4995299;28;20093;-64
2022/04/30 09:18:51;;;;;;;1.30;1.10;;;;;;;19.09;39.01;96901.50;4995439;28;20026;-62
2022/04/30 09:21:19;;;;;;;1.38;1.10;;;;;;;19.41;39.22;96894.00;4995268;28;20465;-63
2022/04/30 09:23:48;;;;;;;2.50;1.00;;;;;;;19.54;38.04;96894.00;4995151;28;20022;-65
2022/04/30 09:26:15;;;;;;;3.08;1.02;;;;;;;19.23;37.36;96897.94;4995169;28;20026;-65
2022/04/30 09:28:43;;;;;;;1.15;1.05;;;;;;;19.08;39.47;96897.16;4995000;28;20667;-64
2022/04/30 09:31:16;;;;;;;0.80;0.80;;;;;;;18.94;38.94;96891.78;4995012;28;20437;-64
2022/04/30 09:33:51;;;;;;;3.72;1.02;;;;;;;19.08;38.55;96887.38;4994827;28;20035;-64
2022/04/30 09:39:17;;;;;;;2.20;1.27;;;;;;;18.66;38.89;96893.59;4980781;28;20488;-63
2022/04/30 09:41:44;;;;;;;1.58;1.10;;;;;;;18.74;38.54;96884.28;4994587;28;20486;-65
2022/04/30 09:44:12;;;;;;;1.42;1.17;;;;;;;18.58;38.67;96880.03;4994604;28;20088;-63
2022/04/30 09:46:40;;;;;;;1.13;0.90;;;;;;;18.42;36.77;96883.66;4994708;28;20054;-65
2022/04/30 09:54:42;;;;;;;1.42;1.00;;;;;;;19.14;40.39;96868.41;4994653;28;20076;-65
2022/04/30 09:57:09;;;;;;;1.27;1.17;;;;;;;19.23;36.90;96869.59;4994568;28;20022;-66
2022/04/30 09:59:38;;;;;;;4.13;1.00;;;;;;;19.13;38.46;96869.38;4994561;28;20026;-62
2022/04/30 10:02:08;;;;;;;2.65;1.10;;;;;;;19.10;40.84;96879.31;4977074;28;20085;-64
2022/04/30 10:04:38;;;;;;;2.72;1.20;;;;;;;18.61;37.25;96878.97;4976975;28;20578;-63
2022/04/30 10:07:05;;;;;;;4.25;1.35;;;;;;;18.75;39.29;96864.81;4994424;28;20111;-64
2022/04/30 10:09:37;;;;;;;1.80;1.08;;;;;;;18.87;38.06;96866.63;4994251;28;20026;-62
2022/04/30 10:12:39;;;;;;;1.13;1.00;;;;;;;18.85;37.13;96857.09;4994342;28;20030;-62
2022/04/30 10:15:21;;;;;;;4.20;1.20;;;;;;;18.88;36.27;96855.09;4917229;28;20138;-63
2022/04/30 10:17:58;;;;;;;1.60;1.25;;;;;;;18.77;35.83;96853.16;4994180;28;20381;-65
2022/04/30 10:20:32;;;;;;;1.15;1.05;;;;;;;18.52;37.57;96854.78;4994268;28;20392;-62
2022/04/30 10:23:03;;;;;;;1.40;1.02;;;;;;;18.52;38.81;96844.19;4994072;28;20104;-62
2022/04/30 10:25:35;;;;;;;1.85;1.20;;;;;;;18.79;38.37;96842.47;4976708;28;20042;-63
2022/04/30 10:28:21;;;;;;;3.58;1.17;;;;;;;18.97;37.80;96855.44;4993921;28;20396;-62
2022/04/30 10:31:03;;;;;;;1.73;1.30;;;;;;;18.54;36.05;96852.00;4994123;28;20038;-65
2022/04/30 10:33:31;;;;;;;1.45;1.00;;;;;;;18.32;36.82;96856.06;4993927;28;20030;-64
2022/04/30 10:36:13;;;;;;;1.30;1.20;;;;;;;18.30;37.66;96861.47;4993787;28;20027;-64
2022/04/30 10:38:44;;;;;;;1.30;1.10;;;;;;;18.19;36.62;96832.19;4993817;28;20031;-65
2022/04/30 10:41:11;;;;;;;;;;;;;;;18.23;37.78;96843.41;4993997;28;20489;-64
2022/04/30 10:43:42;;;;;;;1.10;1.00;;;;;;;18.16;38.00;96846.50;4993866;28;20395;-65
2022/04/30 10:46:14;;;;;;;1.48;1.17;;;;;;;18.15;38.57;96847.41;4993800;28;20034;-64
2022/04/30 10:48:40;;;;;;;4.75;1.38;;;;;;;18.19;37.02;96843.63;4993786;28;20027;-63
2022/04/30 10:51:34;;;;;;;1.95;1.20;;;;;;;18.59;38.53;96847.28;4993748;28;20036;-63
2022/04/30 10:54:02;;;;;;;1.45;1.00;;;;;;;18.65;36.94;96846.88;4979430;28;20392;-65
2022/04/30 10:56:28;;;;;;;4.10;1.40;;;;;;;18.57;38.27;96854.47;4993664;28;20461;-66
2022/04/30 10:58:54;;;;;;;0.98;0.98;;;;;;;18.31;37.36;96846.44;4993782;28;20026;-63
2022/04/30 11:01:21;;;;;;;4.40;1.10;;;;;;;18.53;37.64;96855.63;4993705;28;20034;-64
2022/04/30 11:03:52;;;;;;;3.90;1.13;;;;;;;18.59;37.49;96851.72;4976180;28;20392;-63
2022/04/30 11:06:23;;;;;;;3.92;1.10;;;;;;;18.33;37.13;96856.94;4993653;28;20049;-65
2022/04/30 11:09:01;;;;;;;1.30;1.20;;;;;;;18.22;38.08;96849.69;4993551;28;20037;-63
2022/04/30 11:11:28;;;;;;;1.15;1.05;;;;;;;18.23;37.29;96840.78;4993699;28;20037;-63
2022/04/30 11:14:05;;;;;;;1.52;1.42;;;;;;;18.40;37.87;96845.84;4993584;28;20361;-65
2022/04/30 11:16:46;;;;;;;2.92;1.25;;;;;;;18.28;36.97;96849.28;4993744;28;20061;-62
2022/04/30 11:19:14;;;;;;;4.38;1.30;;;;;;;18.47;37.75;96858.66;4993415;28;20037;-65
2022/04/30 11:21:42;;;;;;;2.60;1.40;;;;;;;18.60;38.15;96861.38;4993495;28;20069;-65
2022/04/30 11:24:08;;;;;;;1.65;1.40;;;;;;;18.49;35.77;96851.47;4993436;28;20105;-65
2022/04/30 11:26:42;;;;;;;2.05;1.40;;;;;;;18.40;37.45;96851.16;4993568;28;20093;-63
2022/04/30 11:29:12;;;;;;;2.72;1.48;;;;;;;18.44;37.97;96852.63;4997250;28;20069;-63
2022/04/30 11:31:39;;;;;;;2.67;1.63;;;;;;;18.41;39.23;96846.69;4997309;28;20556;-64
2022/04/30 11:34:13;;;;;;;2.15;1.80;;;;;;;18.43;39.20;96850.09;4979777;28;20034;-65
2022/04/30 11:36:45;;;;;;;1.70;1.20;;;;;;;18.36;39.78;96839.03;4997154;28;20481;-63
2022/04/30 11:39:12;;;;;;;2.97;1.30;;;;;;;18.35;37.33;96841.78;4997194;28;20022;-65
2022/04/30 11:41:39;;;;;;;1.73;1.63;;;;;;;18.28;37.39;96830.75;4996857;28;20089;-63
2022/04/30 11:44:08;;;;;;;2.58;1.52;;;;;;;18.46;39.26;96839.28;4996910;28;20432;-63
2022/04/30 11:46:37;;;;;;;3.20;1.38;;;;;;;18.23;38.21;96840.78;4997168;28;20097;-63
2022/04/30 11:49:10;;;;;;;2.20;1.80;;;;;;;18.16;38.38;96845.63;4997044;28;20022;-63
2022/04/30 11:51:37;;;;;;;1.92;1.73;;;;;;;18.38;38.86;96846.88;4996969;28;20053;-65
2022/04/30 11:54:08;;;;;;;2.33;1.58;;;;;;;18.65;37.84;96841.56;4996984;28;20033;-65
2022/04/30 11:56:35;;;;;;;1.67;1.58;;;;;;;18.90;37.98;96842.59;4996949;28;20380;-62
2022/04/30 11:59:03;;;;;;;3.45;1.50;;;;;;;18.95;37.46;96836.97;4996291;28;20485;-63
2022/04/30 12:01:42;;;;;;;2.20;2.00;;;;;;;18.73;38.02;96838.44;4996697;28;20085;-66
2022/04/30 12:04:14;;;;;;;3.53;1.83;;;;;;;18.84;38.06;96837.69;4996606;28;20041;-63
2022/04/30 12:06:45;;;;;;;2.42;1.75;;;;;;;18.79;36.48;96834.50;4996645;28;20030;-66
2022/04/30 12:09:20;;;;;;;2.75;2.05;;;;;;;18.73;36.96;96833.13;4996481;28;20041;-64
2022/04/30 12:11:51;;;;;;;3.15;1.75;;;;;;;18.69;37.63;96831.59;4996584;28;20022;-62
2022/04/30 12:14:18;;;;;;;2.13;1.73;;;;;;;18.56;37.94;96835.09;4996695;28;20022;-65